sensor_id;sensor_type;location;lat;lon;timestamp;pressure;altitude;pressure_sealevel;temperature;humidity
68320;BME280;55168;51.120;17.024;2023-03-14T00:00:00;98390;;;9.8;100.0
68320;BME280;55168;51.120;17.024;2023-03-14T00:01:07;98390;;;9.8;100.0
68320;BME280;55168;51.120;17.024;2023-03-14T00:02:00;98390;;;9.8;100.0
68320;BME280;55168;51.120;17.024;2023-03-14T00:03:00;98400;;;9.8;100.0
68320;BME280;55168;51.120;17.024;2023-03-14T00:04:00;98390;;;9.9;100.0
68320;BME280;55168;51.120;17.024;2023-03-14T00:05:00;98390;;;9.9;100.0
68320;BME280;55168;51.120;17.024;2023-03-14T00:06:02;98390;;;9.9;100.0
68320;BME280;55168;51.120;17.024;2023-03-14T00:07:00;98390;;;9.9;100.0
68320;BME280;55168;51.120;17.024;2023-03-14T00:08:00;98390;;;9.9;100.0
68320;BME280;55168;51.120;17.024;2023-03-14T00:09:00;98380;;;9.9;100.0
68320;BME280;55168;51.120;17.024;2023-03-14T00:10:01;98380;;;9.9;100.0
68320;BME280;55168;51.120;17.024;2023-03-14T00:11:04;98390;;;10.0;100.0
68320;BME280;55168;51.120;17.024;2023-03-14T00:12:00;98380;;;10.0;100.0
68320;BME280;55168;51.120;17.024;2023-03-14T00:13:00;98380;;;10.0;100.0
68320;BME280;55168;51.120;17.024;2023-03-14T00:14:00;98370;;;10.1;100.0
68320;BME280;55168;51.120;17.024;2023-03-14T00:15:00;98370;;;10.1;100.0
68320;BME280;55168;51.120;17.024;2023-03-14T00:16:02;98370;;;10.1;100.0
68320;BME280;55168;51.120;17.024;2023-03-14T00:17:00;98370;;;10.1;100.0
68320;BME280;55168;51.120;17.024;2023-03-14T00:18:00;98380;;;10.1;100.0
68320;BME280;55168;51.120;17.024;2023-03-14T00:19:00;98370;;;10.1;100.0
68320;BME280;55168;51.120;17.024;2023-03-14T00:20:00;98370;;;10.1;100.0
68320;BME280;55168;51.120;17.024;2023-03-14T00:21:00;98370;;;10.1;100.0
68320;BME280;55168;51.120;17.024;2023-03-14T00:22:00;98370;;;10.1;100.0
68320;BME280;55168;51.120;17.024;2023-03-14T00:23:00;98370;;;10.1;100.0
68320;BME280;55168;51.120;17.024;2023-03-14T00:24:00;98370;;;10.0;100.0
68320;BME280;55168;51.120;17.024;2023-03-14T00:25:00;98370;;;10.0;100.0
68320;BME280;55168;51.120;17.024;2023-03-14T00:26:00;98370;;;9.9;100.0
68320;BME280;55168;51.120;17.024;2023-03-14T00:27:00;98370;;;9.9;100.0
68320;BME280;55168;51.120;17.024;2023-03-14T00:28:00;98370;;;9.9;100.0
68320;BME280;55168;51.120;17.024;2023-03-14T00:29:00;98370;;;9.9;100.0
68320;BME280;55168;51.120;17.024;2023-03-14T00:30:00;98370;;;9.9;100.0
68320;BME280;55168;51.120;17.024;2023-03-14T00:31:02;98370;;;9.9;100.0
68320;BME280;55168;51.120;17.024;2023-03-14T00:32:00;98370;;;9.9;100.0
68320;BME280;55168;51.120;17.024;2023-03-14T00:33:00;98370;;;9.9;100.0
68320;BME280;55168;51.120;17.024;2023-03-14T00:34:00;98360;;;9.9;100.0
68320;BME280;55168;51.120;17.024;2023-03-14T00:35:00;98360;;;9.9;100.0
68320;BME280;55168;51.120;17.024;2023-03-14T00:36:01;98360;;;9.9;100.0
68320;BME280;55168;51.120;17.024;2023-03-14T00:37:00;98370;;;9.9;100.0
68320;BME280;55168;51.120;17.024;2023-03-14T00:38:00;98370;;;9.9;100.0
68320;BME280;55168;51.120;17.024;2023-03-14T00:39:00;98360;;;9.9;100.0
68320;BME280;55168;51.120;17.024;2023-03-14T00:40:00;98360;;;9.8;100.0
68320;BME280;55168;51.120;17.024;2023-03-14T00:41:04;98350;;;9.8;100.0
68320;BME280;55168;51.120;17.024;2023-03-14T00:42:00;98350;;;9.8;100.0
68320;BME280;55168;51.120;17.024;2023-03-14T00:43:00;98350;;;9.8;100.0
68320;BME280;55168;51.120;17.024;2023-03-14T00:44:00;98350;;;9.8;100.0
68320;BME280;55168;51.120;17.024;2023-03-14T00:45:00;98350;;;9.8;100.0
68320;BME280;55168;51.120;17.024;2023-03-14T00:46:00;98340;;;9.8;100.0
68320;BME280;55168;51.120;17.024;2023-03-14T00:47:00;98350;;;9.7;100.0
68320;BME280;55168;51.120;17.024;2023-03-14T00:48:00;98350;;;9.7;100.0
68320;BME280;55168;51.120;17.024;2023-03-14T00:49:00;98350;;;9.7;100.0
68320;BME280;55168;51.120;17.024;2023-03-14T00:50:00;98350;;;9.7;100.0
68320;BME280;55168;51.120;17.024;2023-03-14T00:51:00;98360;;;9.7;100.0
68320;BME280;55168;51.120;17.024;2023-03-14T00:52:00;98360;;;9.7;100.0
68320;BME280;55168;51.120;17.024;2023-03-14T00:53:00;98370;;;9.7;100.0
68320;BME280;55168;51.120;17.024;2023-03-14T00:54:00;98370;;;9.6;100.0
68320;BME280;55168;51.120;17.024;2023-03-14T00:55:00;98380;;;9.7;100.0
68320;BME280;55168;51.120;17.024;2023-03-14T00:56:02;98390;;;9.6;100.0
68320;BME280;55168;51.120;17.024;2023-03-14T00:57:00;98410;;;9.6;100.0
68320;BME280;55168;51.120;17.024;2023-03-14T00:58:00;98430;;;9.6;100.0
68320;BME280;55168;51.120;17.024;2023-03-14T00:59:00;98440;;;9.6;100.0
68320;BME280;55168;51.120;17.024;2023-03-14T01:00:00;98440;;;9.5;100.0
68320;BME280;55168;51.120;17.024;2023-03-14T01:01:05;98440;;;9.5;100.0
68320;BME280;55168;51.120;17.024;2023-03-14T01:02:00;98420;;;9.4;100.0
68320;BME280;55168;51.120;17.024;2023-03-14T01:03:00;98420;;;9.4;100.0
68320;BME280;55168;51.120;17.024;2023-03-14T01:04:00;98420;;;9.4;100.0
68320;BME280;55168;51.120;17.024;2023-03-14T01:05:00;98420;;;9.4;100.0
68320;BME280;55168;51.120;17.024;2023-03-14T01:06:16;98410;;;9.5;100.0
68320;BME280;55168;51.120;17.024;2023-03-14T01:07:00;98420;;;9.5;100.0
68320;BME280;55168;51.120;17.024;2023-03-14T01:08:00;98410;;;9.5;100.0
68320;BME280;55168;51.120;17.024;2023-03-14T01:09:00;98410;;;9.5;100.0
68320;BME280;55168;51.120;17.024;2023-03-14T01:10:00;98410;;;9.4;100.0
68320;BME280;55168;51.120;17.024;2023-03-14T01:11:04;98400;;;9.5;100.0
68320;BME280;55168;51.120;17.024;2023-03-14T01:12:00;98400;;;9.5;100.0
68320;BME280;55168;51.120;17.024;2023-03-14T01:13:00;98390;;;9.6;100.0
68320;BME280;55168;51.120;17.024;2023-03-14T01:14:00;98370;;;9.6;100.0
68320;BME280;55168;51.120;17.024;2023-03-14T01:15:00;98370;;;9.6;100.0
68320;BME280;55168;51.120;17.024;2023-03-14T01:16:01;98370;;;9.6;100.0
68320;BME280;55168;51.120;17.024;2023-03-14T01:17:00;98380;;;9.6;100.0
68320;BME280;55168;51.120;17.024;2023-03-14T01:18:00;98380;;;9.6;100.0
68320;BME280;55168;51.120;17.024;2023-03-14T01:19:00;98390;;;9.7;100.0
68320;BME280;55168;51.120;17.024;2023-03-14T01:20:00;98390;;;9.8;100.0
68320;BME280;55168;51.120;17.024;2023-03-14T01:21:00;98390;;;9.7;100.0
68320;BME280;55168;51.120;17.024;2023-03-14T01:22:00;98400;;;9.7;100.0
68320;BME280;55168;51.120;17.024;2023-03-14T01:23:00;98400;;;9.7;100.0
68320;BME280;55168;51.120;17.024;2023-03-14T01:24:01;98390;;;9.7;100.0
68320;BME280;55168;51.120;17.024;2023-03-14T01:25:00;98390;;;9.7;100.0
68320;BME280;55168;51.120;17.024;2023-03-14T01:26:00;98390;;;9.7;100.0
68320;BME280;55168;51.120;17.024;2023-03-14T01:27:00;98380;;;9.7;100.0
68320;BME280;55168;51.120;17.024;2023-03-14T01:28:00;98380;;;9.7;100.0
68320;BME280;55168;51.120;17.024;2023-03-14T01:29:00;98390;;;9.7;100.0
68320;BME280;55168;51.120;17.024;2023-03-14T01:30:00;98390;;;9.7;100.0
68320;BME280;55168;51.120;17.024;2023-03-14T01:31:04;98390;;;9.7;100.0
68320;BME280;55168;51.120;17.024;2023-03-14T01:32:00;98390;;;9.7;100.0
68320;BME280;55168;51.120;17.024;2023-03-14T01:33:00;98380;;;9.8;100.0
68320;BME280;55168;51.120;17.024;2023-03-14T01:34:00;98380;;;9.7;100.0
68320;BME280;55168;51.120;17.024;2023-03-14T01:35:00;98380;;;9.7;100.0
68320;BME280;55168;51.120;17.024;2023-03-14T01:36:00;98370;;;9.7;100.0
68320;BME280;55168;51.120;17.024;2023-03-14T01:37:00;98360;;;9.7;100.0
68320;BME280;55168;51.120;17.024;2023-03-14T01:38:00;98360;;;9.7;100.0
68320;BME280;55168;51.120;17.024;2023-03-14T01:39:00;98350;;;9.6;100.0
68320;BME280;55168;51.120;17.024;2023-03-14T01:40:00;98350;;;9.6;100.0
68320;BME280;55168;51.120;17.024;2023-03-14T01:41:00;98340;;;9.6;100.0
68320;BME280;55168;51.120;17.024;2023-03-14T01:42:00;98340;;;9.6;100.0
68320;BME280;55168;51.120;17.024;2023-03-14T01:43:16;98340;;;9.5;100.0
68320;BME280;55168;51.120;17.024;2023-03-14T01:44:00;98340;;;9.5;100.0
68320;BME280;55168;51.120;17.024;2023-03-14T01:45:02;98340;;;9.5;100.0
68320;BME280;55168;51.120;17.024;2023-03-14T01:47:00;98330;;;9.5;100.0
68320;BME280;55168;51.120;17.024;2023-03-14T01:48:00;98320;;;9.5;100.0
68320;BME280;55168;51.120;17.024;2023-03-14T01:49:02;98310;;;9.4;100.0
68320;BME280;55168;51.120;17.024;2023-03-14T01:50:02;98310;;;9.4;100.0
68320;BME280;55168;51.120;17.024;2023-03-14T01:51:00;98310;;;9.4;100.0
68320;BME280;55168;51.120;17.024;2023-03-14T01:52:10;98300;;;9.4;100.0
68320;BME280;55168;51.120;17.024;2023-03-14T01:53:00;98300;;;9.4;100.0
68320;BME280;55168;51.120;17.024;2023-03-14T01:55:04;98290;;;9.4;100.0
68320;BME280;55168;51.120;17.024;2023-03-14T01:56:00;98300;;;9.4;100.0
68320;BME280;55168;51.120;17.024;2023-03-14T01:57:08;98300;;;9.4;100.0
68320;BME280;55168;51.120;17.024;2023-03-14T01:58:00;98290;;;9.4;100.0
68320;BME280;55168;51.120;17.024;2023-03-14T01:59:00;98290;;;9.4;100.0
68320;BME280;55168;51.120;17.024;2023-03-14T02:00:03;98300;;;9.3;100.0
68320;BME280;55168;51.120;17.024;2023-03-14T02:01:00;98310;;;9.3;100.0
68320;BME280;55168;51.120;17.024;2023-03-14T02:02:00;98300;;;9.2;100.0
68320;BME280;55168;51.120;17.024;2023-03-14T02:03:02;98290;;;9.2;100.0
68320;BME280;55168;51.120;17.024;2023-03-14T02:04:00;98290;;;9.2;100.0
68320;BME280;55168;51.120;17.024;2023-03-14T02:05:00;98280;;;9.2;100.0
68320;BME280;55168;51.120;17.024;2023-03-14T02:06:01;98280;;;9.2;100.0
68320;BME280;55168;51.120;17.024;2023-03-14T02:07:03;98280;;;9.2;100.0
68320;BME280;55168;51.120;17.024;2023-03-14T02:08:00;98270;;;9.2;100.0
68320;BME280;55168;51.120;17.024;2023-03-14T02:09:00;98260;;;9.3;100.0
68320;BME280;55168;51.120;17.024;2023-03-14T02:10:00;98250;;;9.3;100.0
68320;BME280;55168;51.120;17.024;2023-03-14T02:11:00;98240;;;9.3;100.0
68320;BME280;55168;51.120;17.024;2023-03-14T02:12:00;98240;;;9.4;100.0
68320;BME280;55168;51.120;17.024;2023-03-14T02:13:01;98230;;;9.6;100.0
68320;BME280;55168;51.120;17.024;2023-03-14T02:14:00;98220;;;9.7;100.0
68320;BME280;55168;51.120;17.024;2023-03-14T02:15:00;98220;;;9.7;100.0
68320;BME280;55168;51.120;17.024;2023-03-14T02:16:00;98210;;;9.7;100.0
68320;BME280;55168;51.120;17.024;2023-03-14T02:17:00;98220;;;9.7;100.0
68320;BME280;55168;51.120;17.024;2023-03-14T02:18:00;98220;;;9.7;100.0
68320;BME280;55168;51.120;17.024;2023-03-14T02:19:00;98220;;;9.7;100.0
68320;BME280;55168;51.120;17.024;2023-03-14T02:20:03;98220;;;9.7;100.0
68320;BME280;55168;51.120;17.024;2023-03-14T02:21:01;98230;;;9.7;100.0
68320;BME280;55168;51.120;17.024;2023-03-14T02:22:08;98220;;;9.7;100.0
68320;BME280;55168;51.120;17.024;2023-03-14T02:23:00;98230;;;9.7;100.0
68320;BME280;55168;51.120;17.024;2023-03-14T02:24:17;98230;;;9.7;100.0
68320;BME280;55168;51.120;17.024;2023-03-14T02:25:04;98230;;;9.7;100.0
68320;BME280;55168;51.120;17.024;2023-03-14T02:26:03;98220;;;9.6;100.0
68320;BME280;55168;51.120;17.024;2023-03-14T02:27:04;98220;;;9.6;100.0
68320;BME280;55168;51.120;17.024;2023-03-14T02:28:00;98220;;;9.6;100.0
68320;BME280;55168;51.120;17.024;2023-03-14T02:29:00;98220;;;9.6;100.0
68320;BME280;55168;51.120;17.024;2023-03-14T02:30:06;98220;;;9.6;100.0
68320;BME280;55168;51.120;17.024;2023-03-14T02:31:00;98210;;;9.6;100.0
68320;BME280;55168;51.120;17.024;2023-03-14T02:32:00;98200;;;9.6;100.0
68320;BME280;55168;51.120;17.024;2023-03-14T02:34:00;98190;;;9.6;100.0
68320;BME280;55168;51.120;17.024;2023-03-14T02:35:01;98190;;;9.6;100.0
68320;BME280;55168;51.120;17.024;2023-03-14T02:36:01;98180;;;9.7;100.0
68320;BME280;55168;51.120;17.024;2023-03-14T02:37:00;98190;;;9.7;100.0
68320;BME280;55168;51.120;17.024;2023-03-14T02:38:17;98190;;;9.7;100.0
68320;BME280;55168;51.120;17.024;2023-03-14T02:40:00;98190;;;9.6;100.0
68320;BME280;55168;51.120;17.024;2023-03-14T02:41:00;98190;;;9.6;100.0
68320;BME280;55168;51.120;17.024;2023-03-14T02:42:00;98190;;;9.6;100.0
68320;BME280;55168;51.120;17.024;2023-03-14T02:43:00;98190;;;9.6;100.0
68320;BME280;55168;51.120;17.024;2023-03-14T02:44:00;98190;;;9.6;100.0
68320;BME280;55168;51.120;17.024;2023-03-14T02:46:00;98180;;;9.6;100.0
68320;BME280;55168;51.120;17.024;2023-03-14T02:47:00;98190;;;9.6;100.0
68320;BME280;55168;51.120;17.024;2023-03-14T02:48:02;98190;;;9.6;100.0
68320;BME280;55168;51.120;17.024;2023-03-14T02:49:04;98190;;;9.6;100.0
68320;BME280;55168;51.120;17.024;2023-03-14T02:50:04;98180;;;9.6;100.0
68320;BME280;55168;51.120;17.024;2023-03-14T02:51:00;98180;;;9.6;100.0
68320;BME280;55168;51.120;17.024;2023-03-14T02:52:00;98180;;;9.6;100.0
68320;BME280;55168;51.120;17.024;2023-03-14T02:53:00;98180;;;9.6;100.0
68320;BME280;55168;51.120;17.024;2023-03-14T02:54:00;98180;;;9.7;100.0
68320;BME280;55168;51.120;17.024;2023-03-14T02:55:00;98170;;;9.8;100.0
68320;BME280;55168;51.120;17.024;2023-03-14T02:56:00;98180;;;9.9;100.0
68320;BME280;55168;51.120;17.024;2023-03-14T02:57:00;98170;;;9.8;100.0
68320;BME280;55168;51.120;17.024;2023-03-14T02:58:00;98170;;;9.9;100.0
68320;BME280;55168;51.120;17.024;2023-03-14T02:59:02;98160;;;9.9;100.0
68320;BME280;55168;51.120;17.024;2023-03-14T03:00:00;98150;;;9.9;100.0
68320;BME280;55168;51.120;17.024;2023-03-14T03:01:00;98150;;;10.0;100.0
68320;BME280;55168;51.120;17.024;2023-03-14T03:02:00;98140;;;10.0;100.0
68320;BME280;55168;51.120;17.024;2023-03-14T03:03:00;98130;;;10.0;100.0
68320;BME280;55168;51.120;17.024;2023-03-14T03:04:00;98130;;;10.1;100.0
68320;BME280;55168;51.120;17.024;2023-03-14T03:05:00;98120;;;10.1;100.0
68320;BME280;55168;51.120;17.024;2023-03-14T03:06:00;98120;;;10.2;100.0
68320;BME280;55168;51.120;17.024;2023-03-14T03:07:00;98120;;;10.1;100.0
68320;BME280;55168;51.120;17.024;2023-03-14T03:08:00;98120;;;10.1;100.0
68320;BME280;55168;51.120;17.024;2023-03-14T03:09:00;98130;;;10.1;100.0
68320;BME280;55168;51.120;17.024;2023-03-14T03:10:00;98130;;;10.2;100.0
68320;BME280;55168;51.120;17.024;2023-03-14T03:11:00;98130;;;10.2;100.0
68320;BME280;55168;51.120;17.024;2023-03-14T03:12:00;98130;;;10.2;100.0
68320;BME280;55168;51.120;17.024;2023-03-14T03:13:00;98120;;;10.2;100.0
68320;BME280;55168;51.120;17.024;2023-03-14T03:14:00;98120;;;10.2;100.0
68320;BME280;55168;51.120;17.024;2023-03-14T03:15:00;98130;;;10.2;100.0
68320;BME280;55168;51.120;17.024;2023-03-14T03:16:00;98140;;;10.3;100.0
68320;BME280;55168;51.120;17.024;2023-03-14T03:17:00;98140;;;10.3;100.0
68320;BME280;55168;51.120;17.024;2023-03-14T03:18:00;98140;;;10.2;100.0
68320;BME280;55168;51.120;17.024;2023-03-14T03:19:00;98140;;;10.2;100.0
68320;BME280;55168;51.120;17.024;2023-03-14T03:20:00;98130;;;10.2;100.0
68320;BME280;55168;51.120;17.024;2023-03-14T03:21:01;98120;;;10.3;100.0
68320;BME280;55168;51.120;17.024;2023-03-14T03:22:00;98120;;;10.2;100.0
68320;BME280;55168;51.120;17.024;2023-03-14T03:23:00;98130;;;10.2;100.0
68320;BME280;55168;51.120;17.024;2023-03-14T03:24:00;98120;;;10.2;100.0
68320;BME280;55168;51.120;17.024;2023-03-14T03:25:00;98110;;;10.1;100.0
68320;BME280;55168;51.120;17.024;2023-03-14T03:26:00;98120;;;10.1;100.0
68320;BME280;55168;51.120;17.024;2023-03-14T03:27:00;98110;;;10.1;100.0
68320;BME280;55168;51.120;17.024;2023-03-14T03:28:00;98110;;;10.0;100.0
68320;BME280;55168;51.120;17.024;2023-03-14T03:29:00;98120;;;10.0;100.0
68320;BME280;55168;51.120;17.024;2023-03-14T03:30:00;98120;;;9.9;100.0
68320;BME280;55168;51.120;17.024;2023-03-14T03:31:06;98120;;;9.9;100.0
68320;BME280;55168;51.120;17.024;2023-03-14T03:32:00;98110;;;9.9;100.0
68320;BME280;55168;51.120;17.024;2023-03-14T03:33:00;98110;;;9.9;100.0
68320;BME280;55168;51.120;17.024;2023-03-14T03:34:00;98110;;;9.9;100.0
68320;BME280;55168;51.120;17.024;2023-03-14T03:35:01;98110;;;9.9;100.0
68320;BME280;55168;51.120;17.024;2023-03-14T03:36:00;98120;;;9.9;100.0
68320;BME280;55168;51.120;17.024;2023-03-14T03:37:00;98120;;;9.9;100.0
68320;BME280;55168;51.120;17.024;2023-03-14T03:38:00;98120;;;9.9;100.0
68320;BME280;55168;51.120;17.024;2023-03-14T03:39:00;98110;;;9.9;100.0
68320;BME280;55168;51.120;17.024;2023-03-14T03:40:00;98120;;;9.9;100.0
68320;BME280;55168;51.120;17.024;2023-03-14T03:41:04;98120;;;9.8;100.0
68320;BME280;55168;51.120;17.024;2023-03-14T03:42:00;98110;;;9.8;100.0
68320;BME280;55168;51.120;17.024;2023-03-14T03:43:00;98120;;;9.8;100.0
68320;BME280;55168;51.120;17.024;2023-03-14T03:44:00;98110;;;9.7;100.0
68320;BME280;55168;51.120;17.024;2023-03-14T03:45:01;98110;;;9.7;100.0
68320;BME280;55168;51.120;17.024;2023-03-14T03:46:03;98090;;;9.7;100.0
68320;BME280;55168;51.120;17.024;2023-03-14T03:47:00;98100;;;9.8;100.0
68320;BME280;55168;51.120;17.024;2023-03-14T03:48:00;98090;;;9.7;100.0
68320;BME280;55168;51.120;17.024;2023-03-14T03:49:00;98080;;;9.7;100.0
68320;BME280;55168;51.120;17.024;2023-03-14T03:50:00;98080;;;9.7;100.0
68320;BME280;55168;51.120;17.024;2023-03-14T03:51:00;98080;;;9.7;100.0
68320;BME280;55168;51.120;17.024;2023-03-14T03:52:00;98080;;;9.7;100.0
68320;BME280;55168;51.120;17.024;2023-03-14T03:53:00;98070;;;9.7;100.0
68320;BME280;55168;51.120;17.024;2023-03-14T03:54:00;98070;;;9.7;100.0
68320;BME280;55168;51.120;17.024;2023-03-14T03:55:00;98070;;;9.7;100.0
68320;BME280;55168;51.120;17.024;2023-03-14T03:56:00;98080;;;9.7;100.0
68320;BME280;55168;51.120;17.024;2023-03-14T03:57:00;98090;;;9.7;100.0
68320;BME280;55168;51.120;17.024;2023-03-14T03:58:00;98090;;;9.6;100.0
68320;BME280;55168;51.120;17.024;2023-03-14T03:59:00;98090;;;9.6;100.0
68320;BME280;55168;51.120;17.024;2023-03-14T04:00:00;98090;;;9.6;100.0
68320;BME280;55168;51.120;17.024;2023-03-14T04:01:00;98080;;;9.6;100.0
68320;BME280;55168;51.120;17.024;2023-03-14T04:02:00;98080;;;9.6;100.0
68320;BME280;55168;51.120;17.024;2023-03-14T04:03:00;98080;;;9.6;100.0
68320;BME280;55168;51.120;17.024;2023-03-14T04:04:00;98080;;;9.6;100.0
68320;BME280;55168;51.120;17.024;2023-03-14T04:05:00;98080;;;9.6;100.0
68320;BME280;55168;51.120;17.024;2023-03-14T04:06:00;98080;;;9.6;100.0
68320;BME280;55168;51.120;17.024;2023-03-14T04:07:00;98080;;;9.6;100.0
68320;BME280;55168;51.120;17.024;2023-03-14T04:08:00;98090;;;9.6;100.0
68320;BME280;55168;51.120;17.024;2023-03-14T04:09:00;98080;;;9.6;100.0
68320;BME280;55168;51.120;17.024;2023-03-14T04:10:00;98080;;;9.6;100.0
68320;BME280;55168;51.120;17.024;2023-03-14T04:11:00;98070;;;9.7;100.0
68320;BME280;55168;51.120;17.024;2023-03-14T04:12:00;98070;;;9.7;100.0
68320;BME280;55168;51.120;17.024;2023-03-14T04:13:00;98070;;;9.7;100.0
68320;BME280;55168;51.120;17.024;2023-03-14T04:14:00;98070;;;9.7;100.0
68320;BME280;55168;51.120;17.024;2023-03-14T04:15:00;98070;;;9.7;100.0
68320;BME280;55168;51.120;17.024;2023-03-14T04:16:00;98070;;;9.7;100.0
68320;BME280;55168;51.120;17.024;2023-03-14T04:17:00;98060;;;9.7;100.0
68320;BME280;55168;51.120;17.024;2023-03-14T04:18:00;98060;;;9.7;100.0
68320;BME280;55168;51.120;17.024;2023-03-14T04:19:00;98060;;;9.7;100.0
68320;BME280;55168;51.120;17.024;2023-03-14T04:20:00;98060;;;9.7;100.0
68320;BME280;55168;51.120;17.024;2023-03-14T04:21:00;98060;;;9.7;100.0
68320;BME280;55168;51.120;17.024;2023-03-14T04:22:00;98070;;;9.8;100.0
68320;BME280;55168;51.120;17.024;2023-03-14T04:23:00;98060;;;9.8;100.0
68320;BME280;55168;51.120;17.024;2023-03-14T04:24:00;98070;;;9.8;100.0
68320;BME280;55168;51.120;17.024;2023-03-14T04:25:00;98060;;;9.8;100.0
68320;BME280;55168;51.120;17.024;2023-03-14T04:26:00;98050;;;9.8;100.0
68320;BME280;55168;51.120;17.024;2023-03-14T04:27:00;98030;;;9.8;100.0
68320;BME280;55168;51.120;17.024;2023-03-14T04:28:00;98040;;;9.8;100.0
68320;BME280;55168;51.120;17.024;2023-03-14T04:29:00;98030;;;9.8;100.0
68320;BME280;55168;51.120;17.024;2023-03-14T04:30:00;98040;;;9.9;100.0
68320;BME280;55168;51.120;17.024;2023-03-14T04:31:05;98040;;;9.9;100.0
68320;BME280;55168;51.120;17.024;2023-03-14T04:32:00;98030;;;9.9;100.0
68320;BME280;55168;51.120;17.024;2023-03-14T04:33:00;98030;;;9.9;100.0
68320;BME280;55168;51.120;17.024;2023-03-14T04:34:00;98030;;;9.9;100.0
68320;BME280;55168;51.120;17.024;2023-03-14T04:35:00;98030;;;9.9;100.0
68320;BME280;55168;51.120;17.024;2023-03-14T04:36:00;98030;;;9.9;100.0
68320;BME280;55168;51.120;17.024;2023-03-14T04:37:00;98020;;;9.9;100.0
68320;BME280;55168;51.120;17.024;2023-03-14T04:38:00;98020;;;9.9;100.0
68320;BME280;55168;51.120;17.024;2023-03-14T04:39:00;98020;;;9.9;100.0
68320;BME280;55168;51.120;17.024;2023-03-14T04:40:00;98020;;;9.8;100.0
68320;BME280;55168;51.120;17.024;2023-03-14T04:41:00;98010;;;9.8;100.0
68320;BME280;55168;51.120;17.024;2023-03-14T04:42:00;98010;;;9.8;100.0
68320;BME280;55168;51.120;17.024;2023-03-14T04:43:00;98020;;;9.8;100.0
68320;BME280;55168;51.120;17.024;2023-03-14T04:44:00;98020;;;9.9;100.0
68320;BME280;55168;51.120;17.024;2023-03-14T04:45:00;98030;;;9.9;100.0
68320;BME280;55168;51.120;17.024;2023-03-14T04:46:00;98030;;;9.9;100.0
68320;BME280;55168;51.120;17.024;2023-03-14T04:47:00;98030;;;9.9;100.0
68320;BME280;55168;51.120;17.024;2023-03-14T04:48:00;98040;;;9.9;100.0
68320;BME280;55168;51.120;17.024;2023-03-14T04:49:00;98040;;;10.0;100.0
68320;BME280;55168;51.120;17.024;2023-03-14T04:50:00;98040;;;10.0;100.0
68320;BME280;55168;51.120;17.024;2023-03-14T04:51:00;98040;;;10.0;100.0
68320;BME280;55168;51.120;17.024;2023-03-14T04:52:00;98040;;;10.0;100.0
68320;BME280;55168;51.120;17.024;2023-03-14T04:53:00;98040;;;10.0;100.0
68320;BME280;55168;51.120;17.024;2023-03-14T04:54:00;98040;;;10.0;100.0
68320;BME280;55168;51.120;17.024;2023-03-14T04:55:00;98040;;;10.0;100.0
68320;BME280;55168;51.120;17.024;2023-03-14T04:56:00;98030;;;10.0;100.0
68320;BME280;55168;51.120;17.024;2023-03-14T04:57:00;98030;;;10.0;100.0
68320;BME280;55168;51.120;17.024;2023-03-14T04:58:00;98030;;;10.0;100.0
68320;BME280;55168;51.120;17.024;2023-03-14T04:59:00;98040;;;9.9;100.0
68320;BME280;55168;51.120;17.024;2023-03-14T05:00:00;98040;;;9.9;100.0
68320;BME280;55168;51.120;17.024;2023-03-14T05:01:02;98030;;;9.9;100.0
68320;BME280;55168;51.120;17.024;2023-03-14T05:02:00;98030;;;9.9;100.0
68320;BME280;55168;51.120;17.024;2023-03-14T05:03:00;98020;;;9.9;100.0
68320;BME280;55168;51.120;17.024;2023-03-14T05:04:00;98020;;;9.9;100.0
68320;BME280;55168;51.120;17.024;2023-03-14T05:05:00;98020;;;9.9;100.0
68320;BME280;55168;51.120;17.024;2023-03-14T05:06:00;98020;;;9.9;100.0
68320;BME280;55168;51.120;17.024;2023-03-14T05:07:00;98020;;;9.9;100.0
68320;BME280;55168;51.120;17.024;2023-03-14T05:08:00;98030;;;9.9;100.0
68320;BME280;55168;51.120;17.024;2023-03-14T05:09:00;98020;;;9.9;100.0
68320;BME280;55168;51.120;17.024;2023-03-14T05:10:00;98030;;;9.9;100.0
68320;BME280;55168;51.120;17.024;2023-03-14T05:11:00;98030;;;9.9;100.0
68320;BME280;55168;51.120;17.024;2023-03-14T05:12:00;98030;;;9.9;100.0
68320;BME280;55168;51.120;17.024;2023-03-14T05:13:00;98020;;;9.9;100.0
68320;BME280;55168;51.120;17.024;2023-03-14T05:14:00;98020;;;9.8;100.0
68320;BME280;55168;51.120;17.024;2023-03-14T05:15:00;98010;;;9.8;100.0
68320;BME280;55168;51.120;17.024;2023-03-14T05:16:08;98010;;;9.8;100.0
68320;BME280;55168;51.120;17.024;2023-03-14T05:17:00;98010;;;9.8;100.0
68320;BME280;55168;51.120;17.024;2023-03-14T05:18:00;98000;;;9.8;100.0
68320;BME280;55168;51.120;17.024;2023-03-14T05:19:00;98000;;;9.8;100.0
68320;BME280;55168;51.120;17.024;2023-03-14T05:20:00;98000;;;9.8;100.0
68320;BME280;55168;51.120;17.024;2023-03-14T05:21:00;98010;;;9.7;100.0
68320;BME280;55168;51.120;17.024;2023-03-14T05:22:00;98020;;;9.7;100.0
68320;BME280;55168;51.120;17.024;2023-03-14T05:23:00;98020;;;9.7;100.0
68320;BME280;55168;51.120;17.024;2023-03-14T05:24:00;98010;;;9.7;100.0
68320;BME280;55168;51.120;17.024;2023-03-14T05:25:00;97990;;;9.6;100.0
68320;BME280;55168;51.120;17.024;2023-03-14T05:26:00;97990;;;9.6;100.0
68320;BME280;55168;51.120;17.024;2023-03-14T05:27:00;97990;;;9.6;100.0
68320;BME280;55168;51.120;17.024;2023-03-14T05:28:00;98000;;;9.6;100.0
68320;BME280;55168;51.120;17.024;2023-03-14T05:29:00;97990;;;9.6;100.0
68320;BME280;55168;51.120;17.024;2023-03-14T05:30:00;97990;;;9.6;100.0
68320;BME280;55168;51.120;17.024;2023-03-14T05:31:00;97990;;;9.7;100.0
68320;BME280;55168;51.120;17.024;2023-03-14T05:32:00;98000;;;9.6;100.0
68320;BME280;55168;51.120;17.024;2023-03-14T05:33:00;98000;;;9.6;100.0
68320;BME280;55168;51.120;17.024;2023-03-14T05:34:00;98000;;;9.6;100.0
68320;BME280;55168;51.120;17.024;2023-03-14T05:35:00;98000;;;9.5;100.0
68320;BME280;55168;51.120;17.024;2023-03-14T05:36:00;98010;;;9.5;100.0
68320;BME280;55168;51.120;17.024;2023-03-14T05:37:00;98010;;;9.4;100.0
68320;BME280;55168;51.120;17.024;2023-03-14T05:38:00;98000;;;9.4;100.0
68320;BME280;55168;51.120;17.024;2023-03-14T05:39:00;98000;;;9.4;100.0